sensor_id;sensor_type;location;lat;lon;timestamp;P1;durP1;ratioP1;P2;durP2;ratioP2
62580;SDS011;48640;48.770;9.148;2022-10-03T15:23:36;9.50;;;3.78;;
62580;SDS011;48640;48.770;9.148;2022-10-03T15:26:07;6.50;;;2.67;;
62580;SDS011;48640;48.770;9.148;2022-10-03T15:28:38;6.43;;;2.63;;
62580;SDS011;48640;48.770;9.148;2022-10-03T15:31:09;7.90;;;2.80;;
62580;SDS011;48640;48.770;9.148;2022-10-03T15:33:40;6.35;;;2.35;;
62580;SDS011;48640;48.770;9.148;2022-10-03T15:36:10;6.10;;;2.47;;
62580;SDS011;48640;48.770;9.148;2022-10-03T15:38:42;6.13;;;2.83;;
62580;SDS011;48640;48.770;9.148;2022-10-03T15:41:16;7.00;;;2.60;;
62580;SDS011;48640;48.770;9.148;2022-10-03T15:43:49;6.70;;;2.72;;
62580;SDS011;48640;48.770;9.148;2022-10-03T15:46:22;6.65;;;2.47;;
62580;SDS011;48640;48.770;9.148;2022-10-03T15:48:55;8.32;;;3.10;;
62580;SDS011;48640;48.770;9.148;2022-10-03T15:51:26;7.13;;;2.72;;
62580;SDS011;48640;48.770;9.148;2022-10-03T15:53:58;6.70;;;2.78;;
62580;SDS011;48640;48.770;9.148;2022-10-03T15:58:57;4.85;;;2.65;;
62580;SDS011;48640;48.770;9.148;2022-10-03T16:01:28;6.95;;;2.88;;
62580;SDS011;48640;48.770;9.148;2022-10-03T16:04:00;5.88;;;2.58;;
62580;SDS011;48640;48.770;9.148;2022-10-03T16:06:29;6.70;;;3.05;;
62580;SDS011;48640;48.770;9.148;2022-10-03T16:09:08;4.60;;;2.60;;
62580;SDS011;48640;48.770;9.148;2022-10-03T16:11:42;4.43;;;2.50;;
62580;SDS011;48640;48.770;9.148;2022-10-03T16:14:19;6.43;;;2.35;;
62580;SDS011;48640;48.770;9.148;2022-10-03T16:16:49;11.85;;;3.25;;
62580;SDS011;48640;48.770;9.148;2022-10-03T16:19:30;5.75;;;2.53;;
62580;SDS011;48640;48.770;9.148;2022-10-03T16:22:11;7.78;;;2.58;;
62580;SDS011;48640;48.770;9.148;2022-10-03T16:24:48;5.68;;;3.25;;
62580;SDS011;48640;48.770;9.148;2022-10-03T16:27:20;9.05;;;3.13;;
62580;SDS011;48640;48.770;9.148;2022-10-03T16:29:53;5.45;;;2.80;;
62580;SDS011;48640;48.770;9.148;2022-10-03T16:32:41;6.05;;;3.00;;
62580;SDS011;48640;48.770;9.148;2022-10-03T16:35:19;7.32;;;3.30;;
62580;SDS011;48640;48.770;9.148;2022-10-03T16:37:53;7.78;;;3.60;;
62580;SDS011;48640;48.770;9.148;2022-10-03T16:40:22;9.73;;;3.35;;
62580;SDS011;48640;48.770;9.148;2022-10-03T16:42:51;8.50;;;4.10;;
62580;SDS011;48640;48.770;9.148;2022-10-03T16:45:23;5.35;;;3.00;;
62580;SDS011;48640;48.770;9.148;2022-10-03T16:47:55;7.47;;;2.80;;
62580;SDS011;48640;48.770;9.148;2022-10-03T16:50:43;6.90;;;2.65;;
62580;SDS011;48640;48.770;9.148;2022-10-03T16:53:14;9.95;;;3.45;;
62580;SDS011;48640;48.770;9.148;2022-10-03T16:55:45;7.03;;;3.50;;
62580;SDS011;48640;48.770;9.148;2022-10-03T16:58:16;6.90;;;2.88;;
62580;SDS011;48640;48.770;9.148;2022-10-03T17:00:49;7.25;;;3.30;;
62580;SDS011;48640;48.770;9.148;2022-10-03T17:03:21;11.63;;;4.22;;
62580;SDS011;48640;48.770;9.148;2022-10-03T17:05:50;6.70;;;3.10;;
62580;SDS011;48640;48.770;9.148;2022-10-03T17:08:20;7.88;;;3.30;;
62580;SDS011;48640;48.770;9.148;2022-10-03T17:10:53;9.95;;;4.03;;
62580;SDS011;48640;48.770;9.148;2022-10-03T17:13:22;9.77;;;3.58;;
62580;SDS011;48640;48.770;9.148;2022-10-03T17:15:55;10.50;;;3.15;;
62580;SDS011;48640;48.770;9.148;2022-10-03T17:18:29;8.57;;;4.03;;
62580;SDS011;48640;48.770;9.148;2022-10-03T17:21:03;6.68;;;2.88;;
62580;SDS011;48640;48.770;9.148;2022-10-03T17:23:42;9.20;;;3.55;;
62580;SDS011;48640;48.770;9.148;2022-10-03T17:26:15;6.40;;;4.00;;
62580;SDS011;48640;48.770;9.148;2022-10-03T17:28:51;4.40;;;3.03;;
62580;SDS011;48640;48.770;9.148;2022-10-03T17:31:23;8.32;;;2.83;;
62580;SDS011;48640;48.770;9.148;2022-10-03T17:33:55;8.23;;;3.22;;
62580;SDS011;48640;48.770;9.148;2022-10-03T17:36:38;6.35;;;3.13;;
62580;SDS011;48640;48.770;9.148;2022-10-03T17:39:16;5.53;;;3.20;;
62580;SDS011;48640;48.770;9.148;2022-10-03T17:41:57;9.25;;;3.67;;
62580;SDS011;48640;48.770;9.148;2022-10-03T17:44:32;9.38;;;3.35;;
62580;SDS011;48640;48.770;9.148;2022-10-03T17:47:05;6.50;;;3.42;;
62580;SDS011;48640;48.770;9.148;2022-10-03T17:49:48;6.82;;;3.47;;
62580;SDS011;48640;48.770;9.148;2022-10-03T17:52:21;11.18;;;4.32;;
62580;SDS011;48640;48.770;9.148;2022-10-03T17:54:50;7.05;;;3.92;;
62580;SDS011;48640;48.770;9.148;2022-10-03T17:57:22;8.68;;;3.53;;
62580;SDS011;48640;48.770;9.148;2022-10-03T17:59:56;9.88;;;4.30;;
62580;SDS011;48640;48.770;9.148;2022-10-03T18:02:32;7.05;;;4.00;;
62580;SDS011;48640;48.770;9.148;2022-10-03T18:05:06;12.73;;;4.78;;
62580;SDS011;48640;48.770;9.148;2022-10-03T18:07:38;11.30;;;4.35;;
62580;SDS011;48640;48.770;9.148;2022-10-03T18:10:14;9.63;;;4.47;;
62580;SDS011;48640;48.770;9.148;2022-10-03T18:12:47;9.68;;;3.97;;
62580;SDS011;48640;48.770;9.148;2022-10-03T18:15:29;7.63;;;3.83;;
62580;SDS011;48640;48.770;9.148;2022-10-03T18:18:25;8.93;;;4.05;;
62580;SDS011;48640;48.770;9.148;2022-10-03T18:21:14;8.95;;;4.05;;
62580;SDS011;48640;48.770;9.148;2022-10-03T18:23:53;7.88;;;4.72;;
62580;SDS011;48640;48.770;9.148;2022-10-03T18:26:36;9.35;;;5.05;;
62580;SDS011;48640;48.770;9.148;2022-10-03T18:29:35;6.82;;;4.40;;
62580;SDS011;48640;48.770;9.148;2022-10-03T18:32:10;11.23;;;5.00;;
62580;SDS011;48640;48.770;9.148;2022-10-03T18:34:41;10.50;;;4.63;;
62580;SDS011;48640;48.770;9.148;2022-10-03T18:37:16;9.25;;;4.18;;
62580;SDS011;48640;48.770;9.148;2022-10-03T18:40:18;8.73;;;4.30;;
62580;SDS011;48640;48.770;9.148;2022-10-03T18:42:49;6.90;;;4.13;;
62580;SDS011;48640;48.770;9.148;2022-10-03T18:45:18;12.30;;;4.90;;
62580;SDS011;48640;48.770;9.148;2022-10-03T18:47:49;7.45;;;4.18;;
62580;SDS011;48640;48.770;9.148;2022-10-03T18:50:20;12.02;;;4.22;;
62580;SDS011;48640;48.770;9.148;2022-10-03T18:52:51;8.90;;;4.68;;
62580;SDS011;48640;48.770;9.148;2022-10-03T18:55:22;8.55;;;4.68;;
62580;SDS011;48640;48.770;9.148;2022-10-03T18:57:54;10.88;;;4.60;;
62580;SDS011;48640;48.770;9.148;2022-10-03T19:00:30;10.13;;;4.93;;
62580;SDS011;48640;48.770;9.148;2022-10-03T19:03:07;9.18;;;4.85;;
62580;SDS011;48640;48.770;9.148;2022-10-03T19:05:41;12.02;;;5.07;;
62580;SDS011;48640;48.770;9.148;2022-10-03T19:08:15;11.35;;;5.40;;
62580;SDS011;48640;48.770;9.148;2022-10-03T19:10:47;10.05;;;5.40;;
62580;SDS011;48640;48.770;9.148;2022-10-03T19:13:25;11.65;;;5.22;;
62580;SDS011;48640;48.770;9.148;2022-10-03T19:16:03;8.50;;;5.07;;
62580;SDS011;48640;48.770;9.148;2022-10-03T19:18:39;10.18;;;5.32;;
62580;SDS011;48640;48.770;9.148;2022-10-03T19:21:10;11.60;;;5.00;;
62580;SDS011;48640;48.770;9.148;2022-10-03T19:23:43;10.77;;;5.60;;
62580;SDS011;48640;48.770;9.148;2022-10-03T19:26:19;10.70;;;5.88;;
62580;SDS011;48640;48.770;9.148;2022-10-03T19:28:50;13.10;;;6.05;;
62580;SDS011;48640;48.770;9.148;2022-10-03T19:31:20;10.13;;;5.80;;
62580;SDS011;48640;48.770;9.148;2022-10-03T19:33:51;12.88;;;6.00;;
62580;SDS011;48640;48.770;9.148;2022-10-03T19:36:25;10.98;;;5.75;;
62580;SDS011;48640;48.770;9.148;2022-10-03T19:38:54;10.98;;;5.60;;
62580;SDS011;48640;48.770;9.148;2022-10-03T19:41:26;14.38;;;5.75;;
62580;SDS011;48640;48.770;9.148;2022-10-03T19:44:00;10.32;;;6.82;;
62580;SDS011;48640;48.770;9.148;2022-10-03T19:49:36;8.57;;;5.22;;
62580;SDS011;48640;48.770;9.148;2022-10-03T19:52:15;7.18;;;4.80;;
62580;SDS011;48640;48.770;9.148;2022-10-03T19:54:47;9.38;;;5.45;;
62580;SDS011;48640;48.770;9.148;2022-10-03T19:57:19;12.13;;;5.20;;
62580;SDS011;48640;48.770;9.148;2022-10-03T19:59:50;9.15;;;4.82;;
62580;SDS011;48640;48.770;9.148;2022-10-03T20:02:22;15.25;;;5.47;;
62580;SDS011;48640;48.770;9.148;2022-10-03T20:04:50;10.40;;;5.07;;
62580;SDS011;48640;48.770;9.148;2022-10-03T20:07:24;9.85;;;5.72;;
62580;SDS011;48640;48.770;9.148;2022-10-03T20:10:14;11.38;;;5.63;;
62580;SDS011;48640;48.770;9.148;2022-10-03T20:12:56;10.10;;;4.90;;
62580;SDS011;48640;48.770;9.148;2022-10-03T20:15:27;9.48;;;6.13;;
62580;SDS011;48640;48.770;9.148;2022-10-03T20:18:02;10.13;;;5.13;;
62580;SDS011;48640;48.770;9.148;2022-10-03T20:20:31;11.30;;;5.18;;
62580;SDS011;48640;48.770;9.148;2022-10-03T20:23:00;7.47;;;4.70;;
62580;SDS011;48640;48.770;9.148;2022-10-03T20:25:30;7.28;;;4.50;;
62580;SDS011;48640;48.770;9.148;2022-10-03T20:28:02;9.35;;;5.40;;
62580;SDS011;48640;48.770;9.148;2022-10-03T20:30:34;10.85;;;4.78;;
62580;SDS011;48640;48.770;9.148;2022-10-03T20:33:05;7.95;;;4.93;;
62580;SDS011;48640;48.770;9.148;2022-10-03T20:35:35;8.13;;;4.68;;
62580;SDS011;48640;48.770;9.148;2022-10-03T20:38:12;13.18;;;5.80;;
62580;SDS011;48640;48.770;9.148;2022-10-03T20:40:49;10.13;;;5.10;;
62580;SDS011;48640;48.770;9.148;2022-10-03T20:43:29;10.25;;;4.93;;
62580;SDS011;48640;48.770;9.148;2022-10-03T20:46:13;8.00;;;4.90;;
62580;SDS011;48640;48.770;9.148;2022-10-03T20:48:50;8.40;;;4.72;;
62580;SDS011;48640;48.770;9.148;2022-10-03T20:51:36;10.30;;;5.40;;
62580;SDS011;48640;48.770;9.148;2022-10-03T20:54:09;6.95;;;4.32;;
62580;SDS011;48640;48.770;9.148;2022-10-03T20:56:49;9.27;;;5.00;;
62580;SDS011;48640;48.770;9.148;2022-10-03T20:59:23;10.70;;;4.85;;
62580;SDS011;48640;48.770;9.148;2022-10-03T21:01:58;10.10;;;5.18;;
62580;SDS011;48640;48.770;9.148;2022-10-03T21:04:29;10.98;;;5.22;;
62580;SDS011;48640;48.770;9.148;2022-10-03T21:07:01;6.22;;;4.45;;
62580;SDS011;48640;48.770;9.148;2022-10-03T21:09:38;10.80;;;4.85;;
62580;SDS011;48640;48.770;9.148;2022-10-03T21:12:17;10.40;;;5.38;;
62580;SDS011;48640;48.770;9.148;2022-10-03T21:14:49;7.25;;;4.40;;
62580;SDS011;48640;48.770;9.148;2022-10-03T21:17:21;8.63;;;5.57;;
62580;SDS011;48640;48.770;9.148;2022-10-03T21:19:51;10.13;;;5.15;;
62580;SDS011;48640;48.770;9.148;2022-10-03T21:22:22;9.95;;;5.35;;
62580;SDS011;48640;48.770;9.148;2022-10-03T21:24:53;10.05;;;5.60;;
62580;SDS011;48640;48.770;9.148;2022-10-03T21:27:23;10.88;;;5.80;;
62580;SDS011;48640;48.770;9.148;2022-10-03T21:29:53;9.85;;;5.30;;
62580;SDS011;48640;48.770;9.148;2022-10-03T21:32:29;10.77;;;4.93;;
62580;SDS011;48640;48.770;9.148;2022-10-03T21:35:09;8.68;;;5.15;;
62580;SDS011;48640;48.770;9.148;2022-10-03T21:37:48;11.02;;;5.93;;
62580;SDS011;48640;48.770;9.148;2022-10-03T21:40:22;8.77;;;5.28;;
62580;SDS011;48640;48.770;9.148;2022-10-03T21:43:00;8.18;;;4.70;;
62580;SDS011;48640;48.770;9.148;2022-10-03T21:45:38;7.85;;;5.05;;
62580;SDS011;48640;48.770;9.148;2022-10-03T21:48:13;10.63;;;5.53;;
62580;SDS011;48640;48.770;9.148;2022-10-03T21:50:56;8.35;;;5.03;;
62580;SDS011;48640;48.770;9.148;2022-10-03T21:53:28;8.20;;;4.93;;
62580;SDS011;48640;48.770;9.148;2022-10-03T21:56:16;8.73;;;5.20;;
62580;SDS011;48640;48.770;9.148;2022-10-03T21:59:04;10.52;;;5.30;;
62580;SDS011;48640;48.770;9.148;2022-10-03T22:01:47;10.85;;;6.22;;
62580;SDS011;48640;48.770;9.148;2022-10-03T22:04:24;7.95;;;5.20;;
62580;SDS011;48640;48.770;9.148;2022-10-03T22:06:58;10.23;;;5.28;;
62580;SDS011;48640;48.770;9.148;2022-10-03T22:09:31;11.65;;;6.00;;
62580;SDS011;48640;48.770;9.148;2022-10-03T22:11:58;12.30;;;6.57;;
62580;SDS011;48640;48.770;9.148;2022-10-03T22:14:30;10.10;;;5.53;;
62580;SDS011;48640;48.770;9.148;2022-10-03T22:17:07;7.47;;;5.00;;
62580;SDS011;48640;48.770;9.148;2022-10-03T22:19:42;10.52;;;6.18;;
62580;SDS011;48640;48.770;9.148;2022-10-03T22:22:14;11.95;;;7.03;;
62580;SDS011;48640;48.770;9.148;2022-10-03T22:25:14;12.93;;;5.78;;
62580;SDS011;48640;48.770;9.148;2022-10-03T22:27:50;9.85;;;5.45;;
62580;SDS011;48640;48.770;9.148;2022-10-03T22:30:25;10.85;;;6.72;;
62580;SDS011;48640;48.770;9.148;2022-10-03T22:33:01;14.05;;;5.88;;
62580;SDS011;48640;48.770;9.148;2022-10-03T22:35:47;9.93;;;6.47;;
62580;SDS011;48640;48.770;9.148;2022-10-03T22:38:16;11.48;;;6.10;;
62580;SDS011;48640;48.770;9.148;2022-10-03T22:40:47;10.55;;;6.38;;
62580;SDS011;48640;48.770;9.148;2022-10-03T22:43:15;11.48;;;6.07;;
62580;SDS011;48640;48.770;9.148;2022-10-03T22:45:45;13.25;;;7.00;;
62580;SDS011;48640;48.770;9.148;2022-10-03T22:48:16;10.25;;;6.43;;
62580;SDS011;48640;48.770;9.148;2022-10-03T22:50:45;10.45;;;7.28;;
62580;SDS011;48640;48.770;9.148;2022-10-03T22:53:13;9.48;;;6.78;;
62580;SDS011;48640;48.770;9.148;2022-10-03T22:55:44;11.63;;;7.90;;
62580;SDS011;48640;48.770;9.148;2022-10-03T22:58:13;10.63;;;6.45;;
62580;SDS011;48640;48.770;9.148;2022-10-03T23:00:41;9.25;;;6.85;;
62580;SDS011;48640;48.770;9.148;2022-10-03T23:03:10;14.75;;;8.02;;
62580;SDS011;48640;48.770;9.148;2022-10-03T23:05:47;15.50;;;7.53;;
62580;SDS011;48640;48.770;9.148;2022-10-03T23:08:22;11.10;;;7.50;;
62580;SDS011;48640;48.770;9.148;2022-10-03T23:10:59;12.85;;;7.50;;
62580;SDS011;48640;48.770;9.148;2022-10-03T23:13:31;13.73;;;8.32;;
62580;SDS011;48640;48.770;9.148;2022-10-03T23:16:05;12.13;;;7.72;;
62580;SDS011;48640;48.770;9.148;2022-10-03T23:18:48;14.02;;;7.50;;
62580;SDS011;48640;48.770;9.148;2022-10-03T23:21:46;12.88;;;7.28;;
62580;SDS011;48640;48.770;9.148;2022-10-03T23:24:16;8.68;;;6.55;;
62580;SDS011;48640;48.770;9.148;2022-10-03T23:29:46;10.38;;;7.45;;
62580;SDS011;48640;48.770;9.148;2022-10-03T23:32:53;13.93;;;8.40;;
62580;SDS011;48640;48.770;9.148;2022-10-03T23:35:31;13.40;;;7.90;;
62580;SDS011;48640;48.770;9.148;2022-10-03T23:40:48;10.18;;;7.32;;
62580;SDS011;48640;48.770;9.148;2022-10-03T23:43:21;11.80;;;8.00;;
62580;SDS011;48640;48.770;9.148;2022-10-03T23:45:53;11.10;;;7.35;;
62580;SDS011;48640;48.770;9.148;2022-10-03T23:48:23;12.88;;;8.32;;
62580;SDS011;48640;48.770;9.148;2022-10-03T23:50:53;10.38;;;8.10;;
62580;SDS011;48640;48.770;9.148;2022-10-03T23:53:25;12.25;;;8.10;;
62580;SDS011;48640;48.770;9.148;2022-10-03T23:55:56;12.27;;;7.93;;
62580;SDS011;48640;48.770;9.148;2022-10-03T23:58:25;12.73;;;8.77;;
